Time;durP1;ratioP1;P1;durP2;ratioP2;P2;SDS_P1;SDS_P2;PMS_P1;PMS_P2;Temp;Humidity;BMP_temperature;BMP_pressure;BME280_temperature;BME280_humidity;BME280_pressure;Samples;Min_cycle;Max_cycle;Signal;HPM_P1;HPM_P2
2022/12/13 00:01:44;;;;;;;429.75;293.40;;;;;;;23.87;32.17;99997.00;5074572;28;20051;-43
2022/12/13 00:04:13;;;;;;;433.35;298.40;;;;;;;23.82;31.95;99999.66;5074316;28;20020;-46
2022/12/13 00:06:40;;;;;;;418.90;284.70;;;;;;;23.83;31.93;99996.13;5074067;28;20035;-44
2022/12/13 00:09:09;;;;;;;416.17;288.98;;;;;;;23.80;31.86;99987.41;5074472;28;20131;-46
2022/12/13 00:11:37;;;;;;;438.17;300.20;;;;;;;23.80;31.94;99996.16;5073215;28;20074;-47
2022/12/13 00:14:06;;;;;;;418.30;288.20;;;;;;;23.81;31.86;99991.78;5074289;28;20020;-42
2022/12/13 00:16:39;;;;;;;421.35;290.20;;;;;;;23.78;31.92;99995.28;5073246;28;20032;-45
2022/12/13 00:19:06;;;;;;;421.42;286.77;;;;;;;23.79;31.56;99994.41;5074287;28;20029;-49
2022/12/13 00:21:35;;;;;;;404.98;273.63;;;;;;;23.77;32.00;99990.91;5074150;28;20033;-45
2022/12/13 00:24:06;;;;;;;412.55;279.88;;;;;;;23.75;31.89;99984.81;5073235;28;20359;-45
2022/12/13 00:26:35;;;;;;;405.60;273.30;;;;;;;23.75;31.75;99978.69;5072924;28;20024;-46
2022/12/13 00:29:06;;;;;;;406.67;281.73;;;;;;;23.74;31.83;99967.34;5073971;28;20036;-45
2022/12/13 00:31:35;;;;;;;393.02;269.13;;;;;;;23.83;31.43;99976.94;5074280;28;20052;-45
2022/12/13 00:34:03;;;;;;;408.75;276.30;;;;;;;23.78;31.65;99986.53;5073909;28;20496;-45
2022/12/13 00:36:32;;;;;;;392.50;269.30;;;;;;;23.76;31.63;99997.03;5074019;28;20025;-45
2022/12/13 00:39:01;;;;;;;392.30;270.20;;;;;;;23.72;31.58;100011.00;5072409;28;20032;-44
2022/12/13 00:41:33;;;;;;;391.08;264.40;;;;;;;23.75;31.62;100011.00;5072578;28;20469;-46
2022/12/13 00:44:02;;;;;;;399.13;265.55;;;;;;;23.80;31.63;100006.63;5074272;28;20025;-44
2022/12/13 00:46:32;;;;;;;402.08;263.02;;;;;;;23.76;31.83;99996.13;5073678;28;20056;-46
2022/12/13 00:49:01;;;;;;;396.20;263.55;;;;;;;23.66;31.74;99993.53;5073679;28;20016;-45
2022/12/13 00:51:33;;;;;;;393.92;262.63;;;;;;;23.70;31.78;100006.63;5072275;28;20047;-47
2022/12/13 00:54:02;;;;;;;387.52;263.55;;;;;;;23.67;31.88;100013.63;5074055;28;20028;-46
2022/12/13 00:56:32;;;;;;;375.65;247.20;;;;;;;23.64;31.41;100002.28;5073532;28;20032;-44
2022/12/13 00:59:01;;;;;;;391.90;259.60;;;;;;;23.71;31.65;100005.78;5055749;28;20485;-45
2022/12/13 01:01:31;;;;;;;380.98;252.57;;;;;;;23.67;31.70;99986.53;5073655;28;20105;-47
2022/12/13 01:04:01;;;;;;;382.02;249.45;;;;;;;23.71;31.81;100005.78;5073134;28;20534;-45
2022/12/13 01:06:42;;;;;;;379.98;251.85;;;;;;;23.70;31.88;99999.63;5073616;28;20028;-43
2022/12/13 01:09:20;;;;;;;371.80;247.73;;;;;;;23.69;31.36;100000.50;5073315;28;20029;-44
2022/12/13 01:11:49;;;;;;;373.73;245.07;;;;;;;23.66;31.25;99993.53;5072863;28;20020;-48
2022/12/13 01:14:18;;;;;;;365.88;238.23;;;;;;;23.69;31.73;99984.81;5073001;28;20470;-43
2022/12/13 01:16:47;;;;;;;370.02;242.45;;;;;;;23.73;31.48;99978.69;5072941;28;20032;-43
2022/12/13 01:19:16;;;;;;;350.70;235.77;;;;;;;23.66;31.19;99976.97;5073506;28;20154;-46
2022/12/13 01:21:44;;;;;;;340.48;227.18;;;;;;;23.57;31.52;99966.50;5073311;28;20028;-42
2022/12/13 01:24:13;;;;;;;334.67;220.52;;;;;;;23.61;31.24;99970.88;5072783;28;20033;-46
2022/12/13 01:26:41;;;;;;;315.70;216.57;;;;;;;23.59;31.14;99972.59;5065672;28;20025;-46
2022/12/13 01:29:10;;;;;;;309.05;204.15;;;;;;;23.61;31.08;99970.88;5053439;28;20439;-44
2022/12/13 01:31:40;;;;;;;308.05;202.40;;;;;;;23.62;30.92;99967.38;5102969;22;20472;-43
2022/12/13 01:34:10;;;;;;;289.73;192.43;;;;;;;23.61;31.00;99976.97;5032623;28;20022;-46
2022/12/13 01:36:40;;;;;;;276.00;186.13;;;;;;;23.58;31.01;99986.56;5032032;28;20458;-43
2022/12/13 01:39:10;;;;;;;274.85;182.15;;;;;;;23.68;30.63;99998.78;5032940;28;20124;-45
2022/12/13 01:41:39;;;;;;;267.73;180.73;;;;;;;23.62;30.92;100004.03;5033275;28;20075;-43
2022/12/13 01:44:27;;;;;;;261.35;173.95;;;;;;;23.60;31.20;99996.16;5032314;28;20493;-43
2022/12/13 01:46:56;;;;;;;240.95;161.55;;;;;;;23.61;30.77;99982.19;5024333;28;20478;-44
2022/12/13 01:49:24;;;;;;;252.07;164.85;;;;;;;23.59;30.82;99981.31;5033010;28;20096;-43
2022/12/13 01:51:56;;;;;;;247.52;161.43;;;;;;;23.63;30.50;99974.34;5032828;28;20520;-45
2022/12/13 01:54:29;;;;;;;242.68;159.10;;;;;;;23.56;30.51;99970.88;5031244;28;20041;-42
2022/12/13 01:56:59;;;;;;;232.63;149.65;;;;;;;23.50;30.84;99961.25;5032953;28;20030;-44
2022/12/13 01:59:28;;;;;;;217.52;143.35;;;;;;;23.61;30.29;99963.00;5032883;28;20026;-44
2022/12/13 02:01:56;;;;;;;226.23;145.75;;;;;;;23.63;30.29;99953.41;5031818;28;20060;-43
2022/12/13 02:04:30;;;;;;;220.15;145.57;;;;;;;23.64;30.56;99955.16;5032884;28;20485;-46
2022/12/13 02:06:59;;;;;;;213.43;135.85;;;;;;;23.61;30.20;99955.16;5031506;28;20035;-44
2022/12/13 02:09:38;;;;;;;210.80;135.55;;;;;;;23.57;30.58;99948.19;5031697;28;20029;-44
2022/12/13 02:12:06;;;;;;;210.88;132.48;;;;;;;23.55;30.52;99949.91;5050564;28;20029;-44
2022/12/13 02:14:36;;;;;;;198.75;123.60;;;;;;;23.49;30.12;99956.03;5052609;28;20240;-45
2022/12/13 02:17:27;;;;;;;189.43;117.28;;;;;;;23.45;30.69;99955.19;5052940;28;20033;-49
2022/12/13 02:20:28;;;;;;;177.77;113.75;;;;;;;23.49;30.48;99956.03;5046332;28;20037;-43
2022/12/13 02:23:35;;;;;;;166.70;105.63;;;;;;;23.56;29.83;99967.38;5049611;28;20056;-46
2022/12/13 02:26:07;;;;;;;153.52;96.95;;;;;;;23.60;29.92;99971.75;5047385;28;20115;-46
2022/12/13 02:28:40;;;;;;;136.98;89.65;;;;;;;23.56;29.92;99970.00;5051361;28;20025;-47
2022/12/13 02:31:24;;;;;;;130.75;87.03;;;;;;;23.52;30.04;99967.38;5052115;28;20078;-44
2022/12/13 02:34:16;;;;;;;128.68;80.68;;;;;;;23.60;29.54;99964.75;5051250;28;20067;-44
2022/12/13 02:37:06;;;;;;;119.55;77.15;;;;;;;23.51;29.70;99949.91;5048812;28;20446;-45
2022/12/13 02:39:39;;;;;;;116.70;74.68;;;;;;;23.51;29.42;99943.81;5042388;28;20040;-43
2022/12/13 02:42:16;;;;;;;108.82;69.22;;;;;;;23.47;29.54;99937.72;5051295;28;20067;-43
2022/12/13 02:44:51;;;;;;;102.18;65.93;;;;;;;23.52;29.49;99956.03;5050933;28;20516;-43
2022/12/13 02:47:22;;;;;;;99.18;63.75;;;;;;;23.50;29.69;99969.09;5052629;28;20026;-43
2022/12/13 02:49:56;;;;;;;97.50;61.67;;;;;;;23.51;29.18;99978.72;5050863;28;20036;-42
2022/12/13 02:52:27;;;;;;;86.55;56.42;;;;;;;23.52;29.51;99971.75;5051764;28;20025;-45
2022/12/13 02:54:55;;;;;;;87.95;53.97;;;;;;;23.48;29.03;99957.78;5050821;28;20028;-43
2022/12/13 02:57:32;;;;;;;73.93;49.95;;;;;;;23.44;29.38;99937.72;5053705;28;20378;-46
2022/12/13 03:00:05;;;;;;;75.60;48.53;;;;;;;23.46;29.14;99950.78;5117078;22;20136;-42
2022/12/13 03:02:45;;;;;;;70.85;45.58;;;;;;;23.39;29.45;99947.31;5074021;28;20551;-46
2022/12/13 03:08:31;;;;;;;64.88;41.03;;;;;;;23.56;28.56;99941.19;5071687;28;20117;-45
2022/12/13 03:11:12;;;;;;;60.10;39.92;;;;;;;23.56;28.82;99936.84;5074750;28;20170;-43
2022/12/13 03:14:00;;;;;;;56.17;36.47;;;;;;;23.47;28.98;99929.00;5075518;28;20025;-45
2022/12/13 03:16:42;;;;;;;54.70;35.30;;;;;;;23.45;29.22;99936.84;5074020;28;20024;-46
2022/12/13 03:19:12;;;;;;;54.30;34.67;;;;;;;23.32;29.27;99938.59;5073954;28;20478;-43
2022/12/13 03:21:44;;;;;;;49.60;32.53;;;;;;;23.44;28.72;99953.44;5074495;28;20025;-47
2022/12/13 03:24:13;;;;;;;49.58;32.03;;;;;;;23.41;28.89;99963.03;5075363;28;20025;-45
2022/12/13 03:26:42;;;;;;;45.28;29.70;;;;;;;23.39;28.93;99964.78;5075395;28;20117;-42
2022/12/13 03:29:11;;;;;;;43.40;28.08;;;;;;;23.41;28.83;99952.56;5075379;28;20158;-46
2022/12/13 03:31:40;;;;;;;41.25;27.70;;;;;;;23.38;28.71;99948.19;5075046;28;20032;-43
2022/12/13 03:34:08;;;;;;;41.45;25.55;;;;;;;23.40;28.65;99956.91;5074798;28;20482;-42
2022/12/13 03:36:38;;;;;;;38.80;25.38;;;;;;;23.30;28.71;99948.19;5075235;28;20114;-44
2022/12/13 03:39:06;;;;;;;35.05;24.20;;;;;;;23.41;28.91;99957.81;5074846;28;20040;-46
2022/12/13 03:41:35;;;;;;;35.72;23.80;;;;;;;23.41;28.76;99950.81;5075073;28;20035;-43
2022/12/13 03:44:06;;;;;;;33.65;21.58;;;;;;;23.36;28.66;99956.06;5073938;28;20125;-44
2022/12/13 03:46:35;;;;;;;30.77;20.65;;;;;;;23.40;28.72;99951.69;5075037;28;20020;-45
2022/12/13 03:49:04;;;;;;;30.08;20.13;;;;;;;23.34;28.63;99970.88;5074860;28;20103;-45
2022/12/13 03:51:32;;;;;;;27.90;20.08;;;;;;;23.30;28.75;99965.66;5074796;28;20028;-42
2022/12/13 03:54:01;;;;;;;29.83;18.88;;;;;;;23.35;28.50;99987.44;5074172;28;20021;-48
2022/12/13 03:56:29;;;;;;;27.52;18.42;;;;;;;23.33;28.62;99991.84;5074691;28;20363;-44
2022/12/13 03:58:58;;;;;;;28.02;17.95;;;;;;;23.37;28.58;99985.69;5074621;28;20111;-45
2022/12/13 04:01:27;;;;;;;23.90;16.05;;;;;;;23.34;28.75;99999.66;5074288;28;20044;-45
2022/12/13 04:03:55;;;;;;;25.90;15.43;;;;;;;23.39;28.36;99991.81;5074203;28;20432;-47
2022/12/13 04:06:24;;;;;;;21.33;15.27;;;;;;;23.34;28.78;99993.53;5074436;28;20032;-43
2022/12/13 04:08:53;;;;;;;21.05;14.80;;;;;;;23.32;28.41;99988.31;5073872;28;20100;-43
2022/12/13 04:14:09;;;;;;;21.17;14.10;;;;;;;23.35;28.19;99996.19;5070281;28;20068;-46
2022/12/13 04:16:39;;;;;;;21.33;13.57;;;;;;;23.33;28.35;99997.06;5074481;28;20359;-43
2022/12/13 04:19:07;;;;;;;18.60;12.75;;;;;;;23.28;28.33;99999.66;5074324;28;20033;-43
2022/12/13 04:21:36;;;;;;;17.05;12.27;;;;;;;23.33;28.26;100002.28;5074600;28;20031;-46
2022/12/13 04:24:05;;;;;;;17.20;11.40;;;;;;;23.26;28.50;100011.84;5073852;28;20025;-44
2022/12/13 04:26:34;;;;;;;17.52;11.15;;;;;;;23.20;28.21;100011.84;5074323;28;20021;-48
2022/12/13 04:29:02;;;;;;;13.93;9.95;;;;;;;23.26;28.27;99997.91;5073978;28;20033;-45
2022/12/13 04:31:31;;;;;;;14.90;10.05;;;;;;;23.15;28.64;99988.28;5073555;28;20397;-43
2022/12/13 04:34:00;;;;;;;14.38;10.32;;;;;;;23.25;28.09;99991.78;5074083;28;20024;-45
2022/12/13 04:36:28;;;;;;;15.85;10.60;;;;;;;23.18;28.69;99998.75;5074159;28;20094;-43
2022/12/13 04:38:57;;;;;;;13.93;9.85;;;;;;;23.20;28.45;99983.06;5073654;28;20076;-45
2022/12/13 04:41:25;;;;;;;13.30;9.30;;;;;;;23.21;28.00;99987.47;5073260;28;20032;-44
2022/12/13 04:43:55;;;;;;;13.63;9.20;;;;;;;23.20;28.25;99977.81;5073971;28;20029;-44
2022/12/13 04:46:24;;;;;;;13.55;8.90;;;;;;;23.28;28.26;99988.31;5073348;28;20165;-42
2022/12/13 04:48:52;;;;;;;12.13;7.85;;;;;;;23.23;27.91;99988.34;5073841;28;20036;-44
2022/12/13 04:51:21;;;;;;;12.40;8.50;;;;;;;23.20;28.37;99985.69;5073539;28;20082;-44
2022/12/13 04:53:50;;;;;;;9.55;7.63;;;;;;;23.30;28.12;99983.97;5072340;28;20478;-44
2022/12/13 04:56:18;;;;;;;10.15;7.32;;;;;;;23.27;27.84;99976.97;5073289;28;20389;-45
2022/12/13 04:58:47;;;;;;;11.30;7.13;;;;;;;23.30;27.96;99979.59;5072904;28;20063;-43
2022/12/13 05:01:15;;;;;;;13.07;8.77;;;;;;;23.19;28.21;99976.94;5073128;28;20448;-46
2022/12/13 05:03:44;;;;;;;10.80;7.80;;;;;;;23.24;28.02;99981.34;5073562;28;20020;-47
2022/12/13 05:06:13;;;;;;;10.32;6.38;;;;;;;23.26;27.82;99988.31;5073451;28;20020;-44
2022/12/13 05:08:42;;;;;;;10.30;7.15;;;;;;;23.20;27.82;99969.97;5073285;28;20082;-44
2022/12/13 05:11:11;;;;;;;9.98;7.13;;;;;;;23.18;27.78;99977.81;5073246;28;20028;-43
2022/12/13 05:13:40;;;;;;;11.07;7.28;;;;;;;23.17;28.11;99980.44;5073000;28;20028;-44
2022/12/13 05:16:09;;;;;;;8.38;6.00;;;;;;;23.19;28.00;99974.31;5072974;28;20033;-44
2022/12/13 05:18:38;;;;;;;9.80;6.47;;;;;;;23.21;27.57;99987.47;5073334;28;20489;-43
2022/12/13 05:21:08;;;;;;;9.07;5.88;;;;;;;23.21;27.78;99977.00;5072035;28;20052;-46
2022/12/13 05:23:37;;;;;;;7.57;5.65;;;;;;;23.24;27.62;99976.09;5073117;28;20077;-47
2022/12/13 05:26:06;;;;;;;8.40;5.75;;;;;;;23.18;27.97;99980.41;5072266;28;20032;-44
2022/12/13 05:28:34;;;;;;;9.63;5.38;;;;;;;23.17;27.87;99977.81;5072684;28;20032;-43
2022/12/13 05:31:12;;;;;;;7.07;5.40;;;;;;;23.15;27.82;99977.81;5072014;28;20119;-44
2022/12/13 05:33:41;;;;;;;7.90;4.97;;;;;;;23.05;28.14;99984.78;5073051;28;20025;-45
2022/12/13 05:36:09;;;;;;;8.13;5.43;;;;;;;23.11;27.59;99991.78;5072901;28;20508;-41
2022/12/13 05:38:38;;;;;;;5.80;4.63;;;;;;;23.10;27.62;99990.03;5072642;28;20028;-43
2022/12/13 05:41:15;;;;;;;5.95;4.72;;;;;;;23.04;27.88;99995.22;5071687;28;20139;-43
2022/12/13 05:43:44;;;;;;;7.97;5.43;;;;;;;22.96;27.88;99976.91;5071923;28;20039;-41
2022/12/13 05:46:14;;;;;;;7.53;5.65;;;;;;;23.00;27.61;99973.44;5073357;28;20094;-44
2022/12/13 05:48:42;;;;;;;7.53;5.32;;;;;;;23.04;27.54;99974.31;5072914;28;20024;-42
2022/12/13 05:51:11;;;;;;;8.68;5.25;;;;;;;23.06;27.42;99977.81;5072731;28;20033;-43
2022/12/13 05:53:41;;;;;;;7.13;4.70;;;;;;;23.10;27.47;99976.94;5072637;28;20024;-44
2022/12/13 05:56:10;;;;;;;6.97;4.75;;;;;;;23.05;27.58;99976.06;5073007;28;20028;-46
2022/12/13 05:58:39;;;;;;;6.95;5.03;;;;;;;22.99;27.81;99971.69;5072718;28;20032;-46
2022/12/13 06:01:12;;;;;;;4.95;4.18;;;;;;;22.95;27.96;99974.31;5072054;28;20094;-42
2022/12/13 06:03:41;;;;;;;6.97;4.65;;;;;;;22.89;27.94;99957.72;5073046;28;20043;-43
2022/12/13 06:06:11;;;;;;;6.68;4.65;;;;;;;22.94;28.04;99951.63;5072574;28;20059;-43
2022/12/13 06:08:39;;;;;;;6.75;4.00;;;;;;;22.92;27.86;99947.28;5072816;28;20031;-44
2022/12/13 06:11:07;;;;;;;4.95;4.13;;;;;;;22.92;27.93;99962.97;5072079;28;20032;-46
2022/12/13 06:13:36;;;;;;;7.13;4.18;;;;;;;22.90;27.99;99963.84;5072613;28;20047;-44
2022/12/13 06:16:06;;;;;;;5.50;4.47;;;;;;;22.87;27.66;99963.84;5072754;28;20021;-43
2022/12/13 06:18:35;;;;;;;6.15;4.47;;;;;;;22.88;27.52;99966.44;5070906;28;20039;-43
2022/12/13 06:21:06;;;;;;;6.57;4.47;;;;;;;22.87;27.64;99974.28;5072817;28;20040;-43
2022/12/13 06:23:35;;;;;;;7.35;5.07;;;;;;;22.87;27.87;99976.91;5072404;28;20347;-44
2022/12/13 06:26:05;;;;;;;6.97;4.80;;;;;;;22.86;27.92;99972.53;5072841;28;20036;-43
2022/12/13 06:28:33;;;;;;;6.80;4.63;;;;;;;22.84;27.53;99972.53;5071491;28;20107;-46
2022/12/13 06:31:02;;;;;;;6.93;4.50;;;;;;;22.87;27.65;99975.16;5071462;28;20473;-45
2022/12/13 06:33:34;;;;;;;5.72;4.43;;;;;;;22.84;27.59;99971.66;5076182;28;20033;-46
2022/12/13 06:36:03;;;;;;;6.75;4.43;;;;;;;22.80;27.47;99956.84;5076402;28;20039;-45
2022/12/13 06:38:30;;;;;;;6.25;4.30;;;;;;;22.82;27.71;99952.50;5076301;28;20028;-42
2022/12/13 06:41:17;;;;;;;4.80;4.05;;;;;;;22.75;27.68;99951.59;5076331;28;20539;-45
2022/12/13 06:43:47;;;;;;;5.75;3.90;;;;;;;22.77;27.73;99949.88;5074754;28;20034;-45
2022/12/13 06:46:16;;;;;;;6.03;4.05;;;;;;;22.75;27.80;99952.47;5075982;28;20024;-43
2022/12/13 06:48:44;;;;;;;36.50;6.70;;;;;;;22.78;27.34;99962.06;5075799;28;20115;-45
2022/12/13 06:51:11;;;;;;;6.15;3.88;;;;;;;22.76;27.24;99958.59;5038457;28;20387;-42
2022/12/13 06:53:40;;;;;;;3.97;3.30;;;;;;;22.73;27.35;99950.72;5055023;28;20478;-41
2022/12/13 06:56:10;;;;;;;5.70;4.07;;;;;;;22.79;27.58;99961.22;5054628;28;20048;-41
2022/12/13 06:58:39;;;;;;;7.15;3.92;;;;;;;22.73;27.44;99963.78;5055215;28;20044;-40
2022/12/13 07:01:11;;;;;;;6.07;3.92;;;;;;;22.66;27.60;99957.69;5053018;28;20060;-41
2022/12/13 07:03:39;;;;;;;5.53;3.97;;;;;;;22.65;27.54;99955.06;5055061;28;20075;-45
2022/12/13 07:06:12;;;;;;;5.57;4.13;;;;;;;22.64;27.59;99958.56;5054743;28;20045;-48
2022/12/13 07:08:41;;;;;;;5.88;4.03;;;;;;;22.64;27.76;99954.19;5055075;28;20044;-43
2022/12/13 07:11:14;;;;;;;6.80;4.25;;;;;;;22.60;27.73;99952.44;5052622;28;20027;-48
2022/12/13 07:13:42;;;;;;;5.50;4.25;;;;;;;22.63;27.72;99952.44;5055129;28;20136;-46
2022/12/13 07:16:11;;;;;;;5.22;3.30;;;;;;;22.60;27.55;99960.28;5058542;28;20017;-46
2022/12/13 07:18:40;;;;;;;5.70;4.03;;;;;;;22.57;27.69;99948.06;5054746;28;20028;-46
2022/12/13 07:21:09;;;;;;;6.30;4.07;;;;;;;22.59;27.54;99953.28;5058205;28;20043;-42
2022/12/13 07:23:37;;;;;;;6.18;4.30;;;;;;;22.60;27.44;99940.25;5060612;28;20036;-42
2022/12/13 07:26:06;;;;;;;7.63;4.80;;;;;;;22.57;27.63;99921.09;5056571;28;20029;-42
2022/12/13 07:28:35;;;;;;;12.57;7.50;;;;;;;22.54;27.74;99921.94;5056344;28;20024;-42
2022/12/13 07:31:05;;;;;;;17.45;11.88;;;;;;;22.54;27.69;99919.31;5057963;28;20029;-41
2022/12/13 07:33:34;;;;;;;34.38;20.90;;;;;;;22.49;27.73;99908.00;5053171;28;20382;-42
2022/12/13 07:36:03;;;;;;;46.38;27.35;;;;;;;22.53;27.96;99907.09;5054083;28;20078;-45
2022/12/13 07:38:31;;;;;;;62.42;37.45;;;;;;;22.53;27.83;99914.94;5053686;28;20037;-43
2022/12/13 07:40:58;;;;;;;73.85;44.03;;;;;;;22.52;28.01;99935.88;5057860;28;20486;-44
2022/12/13 07:43:28;;;;;;;76.38;50.33;;;;;;;22.49;27.96;99928.91;5053713;28;20029;-49
2022/12/13 07:45:58;;;;;;;94.70;57.42;;;;;;;22.50;28.11;99922.81;5053656;28;20029;-48
2022/12/13 07:48:27;;;;;;;101.53;64.68;;;;;;;22.40;27.97;99897.47;5054619;28;20029;-43
2022/12/13 07:51:00;;;;;;;113.55;72.93;;;;;;;22.50;28.10;99920.19;5057733;28;20121;-44
2022/12/13 07:53:27;;;;;;;123.88;78.30;;;;;;;22.45;28.59;99937.59;5057733;28;20382;-42
2022/12/13 07:55:55;;;;;;;136.70;85.00;;;;;;;22.44;28.44;99944.53;5053837;28;20029;-47
2022/12/13 07:58:23;;;;;;;153.70;99.15;;;;;;;22.44;28.44;99947.16;5053865;28;20060;-45
2022/12/13 08:00:50;;;;;;;156.73;101.35;;;;;;;22.40;28.58;99936.66;5057348;28;20060;-46
2022/12/13 08:03:18;;;;;;;164.07;104.38;;;;;;;22.41;28.34;99943.63;5054055;28;20025;-43
2022/12/13 08:05:46;;;;;;;167.30;106.97;;;;;;;22.41;28.46;99939.31;5054081;28;20017;-45
2022/12/13 08:08:16;;;;;;;168.40;108.82;;;;;;;22.35;28.54;99939.28;5053332;28;20036;-45
2022/12/13 08:10:44;;;;;;;171.73;114.25;;;;;;;22.33;28.50;99959.28;5053001;28;20078;-45
2022/12/13 08:13:12;;;;;;;184.23;119.88;;;;;;;22.29;28.72;99957.53;5053609;28;20025;-46
2022/12/13 08:15:40;;;;;;;196.82;126.28;;;;;;;22.25;29.03;99961.88;5052361;28;20032;-43
2022/12/13 08:18:07;;;;;;;196.02;130.48;;;;;;;22.20;29.17;99963.56;5053325;28;20474;-42
2022/12/13 08:20:36;;;;;;;206.75;134.43;;;;;;;22.18;29.21;99969.69;5052961;28;20025;-48
2022/12/13 08:23:04;;;;;;;219.70;137.95;;;;;;;22.19;29.02;99961.81;5053560;28;20158;-44
2022/12/13 08:25:32;;;;;;;209.55;141.43;;;;;;;22.14;29.45;99959.19;5053328;28;20052;-43
2022/12/13 08:28:00;;;;;;;225.88;147.30;;;;;;;22.15;29.14;99960.94;5053167;28;20482;-48
2022/12/13 08:30:29;;;;;;;226.73;146.88;;;;;;;22.16;29.22;99952.25;5052145;28;20112;-46
2022/12/13 08:32:57;;;;;;;232.75;157.82;;;;;;;22.16;29.16;99944.41;5053072;28;20115;-47
2022/12/13 08:35:28;;;;;;;226.85;148.95;;;;;;;22.14;29.40;99934.84;5053261;28;20095;-45
2022/12/13 08:37:55;;;;;;;239.60;161.52;;;;;;;22.12;29.63;99926.97;5052793;28;20503;-48
2022/12/13 08:40:23;;;;;;;250.15;168.82;;;;;;;22.10;29.74;99927.84;5052662;28;20036;-46
2022/12/13 08:42:51;;;;;;;247.63;165.30;;;;;;;22.10;29.67;99939.16;5053219;28;20025;-48
2022/12/13 08:45:20;;;;;;;259.23;173.13;;;;;;;22.07;29.96;99933.06;5051526;28;20082;-48
2022/12/13 08:47:48;;;;;;;232.30;154.20;;;;;;;22.06;29.62;99940.03;5106911;22;20060;-48
2022/12/13 08:50:17;;;;;;;245.30;164.80;;;;;;;22.06;29.84;99936.53;5045072;28;20029;-45
2022/12/13 08:52:45;;;;;;;256.73;168.75;;;;;;;22.05;29.86;99955.66;5053549;28;20029;-47
2022/12/13 08:55:15;;;;;;;281.92;182.27;;;;;;;22.06;30.17;99946.97;5052322;28;20107;-42
2022/12/13 08:57:44;;;;;;;255.27;178.15;;;;;;;22.06;29.58;99939.13;5053399;28;20029;-41
2022/12/13 09:00:14;;;;;;;276.30;186.05;;;;;;;22.05;29.91;99945.22;5053174;28;20470;-47
2022/12/13 09:02:41;;;;;;;296.67;194.85;;;;;;;22.08;30.03;99937.41;5051087;28;20044;-42
2022/12/13 09:05:09;;;;;;;285.63;193.52;;;;;;;22.01;29.84;99937.38;5050940;28;20100;-44
2022/12/13 09:07:40;;;;;;;262.92;184.40;;;;;;;21.99;29.93;99939.13;5052325;28;20043;-44
2022/12/13 09:10:08;;;;;;;281.15;190.10;;;;;;;22.00;29.86;99946.09;5051946;28;20029;-45
2022/12/13 09:12:40;;;;;;;293.58;195.23;;;;;;;21.99;30.16;99952.19;5051785;28;20033;-45
2022/12/13 09:15:09;;;;;;;303.25;200.25;;;;;;;22.00;30.38;99947.81;5051096;28;20017;-45
2022/12/13 09:17:37;;;;;;;288.40;200.75;;;;;;;21.99;30.23;99943.47;5050823;28;20025;-43
2022/12/13 09:20:06;;;;;;;294.95;201.57;;;;;;;21.95;30.29;99947.81;5051982;28;20515;-46
2022/12/13 09:22:33;;;;;;;280.33;191.50;;;;;;;21.95;30.21;99950.41;5051696;28;20421;-47
2022/12/13 09:25:02;;;;;;;308.08;211.85;;;;;;;21.93;30.19;99940.81;5051249;28;20032;-42
2022/12/13 09:27:31;;;;;;;298.23;206.05;;;;;;;21.91;30.44;99945.19;5051187;28;20039;-46
2022/12/13 09:29:59;;;;;;;316.75;213.18;;;;;;;21.89;30.52;99934.69;5051635;28;20060;-45
2022/12/13 09:32:27;;;;;;;312.05;215.27;;;;;;;21.89;30.54;99931.22;5051812;28;20036;-47
2022/12/13 09:34:55;;;;;;;320.88;225.95;;;;;;;21.89;30.96;99932.09;5051255;28;20021;-46
2022/12/13 09:37:22;;;;;;;310.85;213.10;;;;;;;21.88;30.41;99938.19;5049181;28;20033;-51
2022/12/13 09:39:51;;;;;;;289.65;205.23;;;;;;;21.87;30.44;99941.66;5051502;28;20028;-45
2022/12/13 09:42:22;;;;;;;286.42;198.45;;;;;;;21.88;30.17;99951.22;5051487;28;20029;-49
2022/12/13 09:44:54;;;;;;;313.95;211.40;;;;;;;21.84;30.53;99958.19;5049700;28;20025;-46
2022/12/13 09:47:41;;;;;;;319.27;214.90;;;;;;;21.86;30.50;99963.41;5051624;28;20044;-43
2022/12/13 09:50:13;;;;;;;316.52;218.80;;;;;;;21.93;30.40;99964.31;5063177;28;20020;-47
2022/12/13 09:52:42;;;;;;;322.75;222.52;;;;;;;22.02;30.72;99959.16;5050438;28;20505;-44
2022/12/13 09:55:31;;;;;;;310.52;219.65;;;;;;;22.06;30.12;99965.25;5049884;28;20551;-47
2022/12/13 09:58:00;;;;;;;315.45;218.02;;;;;;;22.10;30.48;99965.28;5061427;28;20079;-46
2022/12/13 10:00:34;;;;;;;304.83;211.55;;;;;;;22.05;30.28;99940.91;5049576;28;20051;-44
2022/12/13 10:03:02;;;;;;;306.80;212.25;;;;;;;22.09;30.42;99933.94;5049457;28;20098;-43
2022/12/13 10:05:31;;;;;;;296.83;204.60;;;;;;;22.06;30.38;99941.75;5049680;28;20103;-47
2022/12/13 10:08:00;;;;;;;323.33;215.82;;;;;;;22.10;29.98;99936.53;5054579;28;20521;-44
2022/12/13 10:10:28;;;;;;;317.42;217.10;;;;;;;22.11;30.36;99945.25;5053420;28;20103;-51
2022/12/13 10:13:03;;;;;;;313.88;215.52;;;;;;;22.10;30.48;99939.16;5054602;28;20041;-49
2022/12/13 10:15:31;;;;;;;;;;;;;;;22.16;30.38;99925.28;5068744;28;20024;-46
2022/12/13 10:18:00;;;;;;;333.92;221.68;;;;;;;22.21;30.06;99933.97;5053025;28;20370;-47
2022/12/13 10:20:29;;;;;;;322.63;223.43;;;;;;;22.15;30.23;99931.38;5054627;28;20474;-46
2022/12/13 10:22:57;;;;;;;330.92;233.50;;;;;;;22.19;30.75;99937.47;5054035;28;20033;-42
2022/12/13 10:25:53;;;;;;;340.45;235.70;;;;;;;22.18;31.10;99936.56;5054031;28;20091;-49
2022/12/13 10:28:31;;;;;;;351.27;233.05;;;;;;;22.19;30.83;99940.06;5048657;28;20037;-41
2022/12/13 10:30:59;;;;;;;337.02;233.75;;;;;;;22.11;30.85;99920.00;5052951;28;20032;-48
2022/12/13 10:33:34;;;;;;;336.65;232.13;;;;;;;22.17;30.88;99921.78;5053111;28;20033;-50
2022/12/13 10:36:20;;;;;;;;;;;;;;;22.20;30.55;99936.59;5069658;28;20028;-46
2022/12/13 10:38:49;;;;;;;345.15;236.30;;;;;;;22.28;30.49;99943.59;5049954;28;19920;-52
2022/12/13 10:41:37;;;;;;;337.25;239.73;;;;;;;22.24;30.33;99952.28;5053086;28;20038;-47
2022/12/13 10:44:24;;;;;;;344.83;234.82;;;;;;;22.23;30.87;99953.16;5053584;28;20031;-50
2022/12/13 10:46:58;;;;;;;347.95;238.02;;;;;;;22.28;30.68;99937.47;5053018;28;20497;-51
2022/12/13 10:49:32;;;;;;;348.47;240.50;;;;;;;22.24;30.47;99934.00;5043998;28;20116;-51
2022/12/13 10:52:02;;;;;;;347.40;234.95;;;;;;;22.27;30.89;99922.69;5052015;28;20021;-46
2022/12/13 10:54:32;;;;;;;350.52;238.93;;;;;;;22.28;30.62;99917.47;5051064;28;20032;-50
2022/12/13 10:57:01;;;;;;;340.48;232.13;;;;;;;22.28;30.52;99917.47;5053411;28;20106;-48
2022/12/13 10:59:34;;;;;;;338.75;232.10;;;;;;;22.26;30.89;99913.97;5053216;28;20040;-50
2022/12/13 11:02:22;;;;;;;342.30;237.40;;;;;;;22.28;30.63;99909.63;5053731;28;20029;-51
2022/12/13 11:04:50;;;;;;;334.88;234.40;;;;;;;22.29;30.67;99905.25;5053118;28;20422;-50
2022/12/13 11:07:30;;;;;;;343.33;239.88;;;;;;;22.26;30.85;99902.63;5068515;28;20470;-45
2022/12/13 11:10:16;;;;;;;356.90;245.68;;;;;;;22.29;31.00;99900.03;5053552;28;20052;-50
2022/12/13 11:12:44;;;;;;;345.25;236.57;;;;;;;22.31;30.88;99893.09;5053067;28;20115;-54
2022/12/13 11:15:23;;;;;;;344.52;240.65;;;;;;;22.28;31.01;99887.84;5052866;28;20040;-50
2022/12/13 11:17:54;;;;;;;354.85;244.35;;;;;;;22.34;30.88;99884.41;5050518;28;20167;-50
2022/12/13 11:20:25;;;;;;;350.25;240.75;;;;;;;22.33;30.78;99880.91;5053706;28;20029;-51
2022/12/13 11:23:25;;;;;;;364.35;247.82;;;;;;;22.30;31.11;99879.16;5053187;28;20035;-47
2022/12/13 11:25:56;;;;;;;365.10;248.60;;;;;;;22.33;31.22;99870.44;5050964;28;20433;-53
2022/12/13 11:28:38;;;;;;;358.70;248.23;;;;;;;22.36;30.96;99874.81;5052701;28;20025;-50
2022/12/13 11:31:32;;;;;;;360.40;243.52;;;;;;;22.33;31.01;99864.38;5053445;28;20021;-48
2022/12/13 11:34:23;;;;;;;338.75;240.65;;;;;;;22.39;31.09;99846.97;5051497;28;20094;-54
2022/12/13 11:37:14;;;;;;;349.15;239.07;;;;;;;22.42;31.11;99862.66;5051573;28;20116;-50